Stamford, NY (12167)

4:21 AM EST on March 04, 2015 (GMT -0500)
Stamford Central School | Change Station
CLOSE
Current Station
Personal Weather Station
Location: Stamford, NY
Elevation: 1804 ft
Nearby Weather Stations
Active Advisory: Winter Weather Advisory Active Notice: Public Information Statement

Elev 1804 ft 42.41 °N, 74.62 °W | Updated 4 minutes ago

Overcast
Overcast
31.6 °F
Feels Like 24 °F
N
8.0
Wind Variable Wind from South

Today
High -- | Low -- °F
--% Chance of Precip.
Yesterday
High -- | Low -- °F
Precip. -- in
6:29 AM 5:51 PM
Waxing Gibbous, 98% visible
Pressure 29.70 in
Visibility 10.0 miles
Clouds Few 1300 ft
Overcast 2800 ft
Windchill 24 °F
Dew Point 29 °F
Humidity 91%
Rainfall 0.00 in
Snow Depth Not available.
UV 0.0 out of 12
Pollen .40 out of 12
Air Quality Not available.
Flu Activity Not available.
METAR KALB 040851Z 15009KT 10SM FEW013 OVC028 00/M03 A2968 RMK AO2 SLP055 T00001033 55002

More Conditions Fewer Conditions

Pressure 29.70 in
Visibility 10.0 miles
Clouds Few 1300 ft
Overcast 2800 ft
Windchill 24 °F
Dew Point 29 °F
Humidity 91%
Rainfall 0.00 in
Snow Depth Not available.
UV 0.0 out of 12
Pollen .40 out of 12
Air Quality Not available.
Flu Activity Not available.
METAR KALB 040851Z 15009KT 10SM FEW013 OVC028 00/M03 A2968 RMK AO2 SLP055 T00001033 55002

More Conditions Fewer Conditions

10-Day Weather Forecast

Almanac

Astronomy

Mar. 04, 2015 Rise Set
Actual Time
Civil Twilight
Nautical Twilight
Astronomical Twilight
Moon
Length of Visible Light
Length of Day
Tomorrow will be .
, % of the Moon is Illuminated

Today's Extremes

State Highs State Lows

Community

WunderPhotos

Upload Photos

1,802,419 photos uploaded!

WunderBlogs® & News

Nearby

Air Quality

  Air Quality AQ Index Pollutant
Not available.

Snow Depth

Station Depth Elevation

Earthquake Activity

City Distance Mag. Time & Date
Minimum magnitude displayed is 2.5.

Coastal Water Temperatures

Place Temperature

Nearby Weather Stations

Winter Weather Advisory
Statement as of 4:02 AM EST on March 04, 2015

... Winter Weather Advisory remains in effect until 7 am EST this
morning...

* locations... Chenango Otsego and Delaware counties.

* Hazards... areas of freezing drizzle.

* Accumulations... a trace to thin light coating of ice. Very
little if any additional snow and sleet.

* Timing... .early this morning through 7 am EST.

* Temperatures... in the upper 20s to low 30s.

* Winds... southwest 10 to 15 mph with gusts up to 25 mph.

* Impacts... untreated roads will be hazardous.

Precautionary/preparedness actions...

This Winter Weather Advisory means that freezing drizzle will
cause travel difficulties. Be prepared for slippery roads and
limited visibilities... and use caution while driving.

Please report snowfall and/or ice amounts to the National Weather
Service by calling toll free at 1-888-603-1402... or by email at
bgm.Stormreport@noaa.Gov.